Time;durP1;ratioP1;P1;durP2;ratioP2;P2;SDS_P1;SDS_P2;PMS_P1;PMS_P2;Temp;Humidity;BMP_temperature;BMP_pressure;BME280_temperature;BME280_humidity;BME280_pressure;Samples;Min_cycle;Max_cycle;Signal;HPM_P1;HPM_P2
2022/09/02 00:00:33;;;;;;;3.72;1.35;;;;;;;8.66;100.00;99726.91;5174732;27;20085;-45
2022/09/02 00:02:59;;;;;;;4.25;1.10;;;;;;;8.62;100.00;99726.78;5174853;27;20053;-46
2022/09/02 00:05:25;;;;;;;3.42;1.00;;;;;;;8.57;100.00;99737.16;5174668;27;20634;-49
2022/09/02 00:07:52;;;;;;;3.72;1.25;;;;;;;8.55;100.00;99744.88;5174861;27;20042;-47
2022/09/02 00:10:18;;;;;;;1.45;1.10;;;;;;;8.57;100.00;99772.69;5174703;27;20133;-46
2022/09/02 00:12:45;;;;;;;1.58;1.20;;;;;;;8.56;100.00;99776.53;5174677;27;20082;-46
2022/09/02 00:15:11;;;;;;;1.92;1.35;;;;;;;8.53;100.00;99780.75;5174943;27;20125;-47
2022/09/02 00:17:38;;;;;;;1.70;1.17;;;;;;;8.47;100.00;99798.50;5174413;27;20535;-46
2022/09/02 00:20:05;;;;;;;3.53;1.10;;;;;;;8.44;100.00;99810.88;5174963;27;20072;-46
2022/09/02 00:22:31;;;;;;;1.85;1.20;;;;;;;8.40;100.00;99817.38;5174679;27;20432;-47
2022/09/02 00:24:57;;;;;;;1.20;1.10;;;;;;;8.32;100.00;99827.19;5175199;27;20157;-47
2022/09/02 00:27:24;;;;;;;2.40;0.90;;;;;;;8.39;100.00;99840.34;5174607;27;20566;-46
2022/09/02 00:29:52;;;;;;;2.88;1.35;;;;;;;8.35;100.00;99845.63;5174734;27;20094;-46
2022/09/02 00:32:18;;;;;;;2.60;1.42;;;;;;;8.30;100.00;99855.94;5175020;27;20058;-46
2022/09/02 00:34:44;;;;;;;1.20;1.10;;;;;;;8.26;100.00;99866.75;5174695;27;20050;-45
2022/09/02 00:37:12;;;;;;;1.85;1.30;;;;;;;8.32;100.00;99878.28;5174297;27;20107;-47
2022/09/02 00:39:38;;;;;;;4.55;1.60;;;;;;;8.23;100.00;99870.13;5174710;27;20421;-45
2022/09/02 00:42:05;;;;;;;1.40;1.20;;;;;;;8.28;100.00;99882.81;5174471;27;20133;-46
2022/09/02 00:44:33;;;;;;;1.45;1.10;;;;;;;8.34;100.00;99890.50;5174343;27;20085;-45
2022/09/02 00:47:00;;;;;;;1.13;1.08;;;;;;;8.29;100.00;99890.66;5174803;27;20134;-45
2022/09/02 00:49:29;;;;;;;2.00;1.33;;;;;;;8.33;100.00;99890.81;5174348;27;20085;-47
2022/09/02 00:52:00;;;;;;;1.30;1.20;;;;;;;8.27;100.00;99897.63;5174415;27;20081;-48
2022/09/02 00:54:31;;;;;;;8.15;1.20;;;;;;;8.30;100.00;99897.75;5173855;27;20067;-47
2022/09/02 00:56:59;;;;;;;3.70;1.40;;;;;;;8.31;100.00;99899.34;5173429;27;20046;-46
2022/09/02 00:59:34;;;;;;;1.63;1.40;;;;;;;8.29;100.00;99898.88;5173742;27;20067;-47
2022/09/02 01:02:02;;;;;;;3.70;1.45;;;;;;;8.23;100.00;99897.44;5173971;27;20102;-48
2022/09/02 01:04:28;;;;;;;4.43;1.58;;;;;;;8.21;100.00;99902.47;5174051;27;20556;-49
2022/09/02 01:06:54;;;;;;;1.70;1.40;;;;;;;8.18;100.00;99916.78;5173918;27;20528;-47
2022/09/02 01:09:22;;;;;;;1.42;1.33;;;;;;;8.09;100.00;99925.00;5174125;27;20523;-46
2022/09/02 01:11:52;;;;;;;1.35;1.25;;;;;;;7.87;100.00;99942.47;5173889;27;20082;-46
2022/09/02 01:14:18;;;;;;;1.35;1.10;;;;;;;8.01;100.00;99961.38;5174607;27;20047;-47
2022/09/02 01:16:47;;;;;;;1.45;1.20;;;;;;;7.99;100.00;99963.63;5173879;27;20459;-46
2022/09/02 01:19:21;;;;;;;1.30;1.20;;;;;;;8.09;100.00;99965.19;5174172;27;20057;-46
2022/09/02 01:21:49;;;;;;;2.47;1.30;;;;;;;7.85;100.00;99968.50;5173692;27;20489;-47
2022/09/02 01:24:18;;;;;;;2.17;1.08;;;;;;;7.97;100.00;99974.09;5173768;27;20050;-46
2022/09/02 01:26:44;;;;;;;1.10;1.00;;;;;;;7.89;100.00;99977.63;5173677;27;20085;-45
2022/09/02 01:29:10;;;;;;;1.77;1.30;;;;;;;7.90;100.00;99973.78;5173472;27;20084;-45
2022/09/02 01:31:37;;;;;;;1.58;1.30;;;;;;;7.90;100.00;99981.97;5173389;27;20042;-46
2022/09/02 01:34:05;;;;;;;1.80;1.60;;;;;;;7.82;100.00;99974.59;5173349;27;20141;-45
2022/09/02 01:36:31;;;;;;;2.00;1.30;;;;;;;7.75;100.00;99980.56;5173433;27;20046;-46
2022/09/02 01:38:58;;;;;;;2.55;1.65;;;;;;;7.85;100.00;99987.59;5173345;27;20133;-46
2022/09/02 01:41:25;;;;;;;1.88;1.40;;;;;;;7.79;100.00;99986.97;5173834;27;20046;-47
2022/09/02 01:43:51;;;;;;;2.85;1.40;;;;;;;7.82;100.00;99997.25;5173314;27;20081;-45
2022/09/02 01:46:17;;;;;;;1.65;1.45;;;;;;;7.74;100.00;99995.34;5173757;27;20457;-46
2022/09/02 01:48:44;;;;;;;1.30;1.20;;;;;;;7.80;100.00;100002.25;5173333;27;20046;-48
2022/09/02 01:51:16;;;;;;;1.52;1.38;;;;;;;7.73;100.00;99994.56;5173159;27;20083;-49
2022/09/02 01:53:42;;;;;;;2.85;1.67;;;;;;;7.76;100.00;99999.38;5173139;27;20053;-46
2022/09/02 01:56:09;;;;;;;2.42;1.55;;;;;;;7.69;100.00;100006.44;5173163;27;20061;-46
2022/09/02 01:58:36;;;;;;;1.35;1.25;;;;;;;7.76;100.00;100010.28;5173087;27;20042;-46
2022/09/02 02:01:03;;;;;;;2.63;1.45;;;;;;;7.67;100.00;100017.69;5173232;27;20153;-45
2022/09/02 02:03:30;;;;;;;1.77;1.40;;;;;;;7.66;100.00;100009.81;5173294;27;20096;-46
2022/09/02 02:05:56;;;;;;;2.20;1.70;;;;;;;7.62;100.00;100017.03;5172991;27;20130;-48
2022/09/02 02:08:23;;;;;;;2.20;1.45;;;;;;;7.44;100.00;100021.75;5173391;27;20092;-46
2022/09/02 02:10:49;;;;;;;1.75;1.65;;;;;;;7.58;100.00;100018.81;5172794;27;20058;-48
2022/09/02 02:13:16;;;;;;;1.50;1.40;;;;;;;7.57;100.00;100017.22;5173388;27;20141;-46
2022/09/02 02:15:43;;;;;;;2.97;1.50;;;;;;;7.45;100.00;100009.69;5172826;27;20046;-46
2022/09/02 02:18:10;;;;;;;1.55;1.45;;;;;;;7.51;100.00;100017.38;5173185;27;20082;-46
2022/09/02 02:20:37;;;;;;;1.85;1.40;;;;;;;7.48;100.00;100014.50;5172992;27;20050;-48
2022/09/02 02:23:04;;;;;;;1.92;1.50;;;;;;;7.42;100.00;100021.25;5172878;27;20058;-46
2022/09/02 02:25:30;;;;;;;5.50;1.70;;;;;;;7.28;100.00;100022.22;5172738;27;20054;-46
2022/09/02 02:27:57;;;;;;;3.13;1.23;;;;;;;7.31;100.00;100021.56;5172880;27;20133;-47
2022/09/02 02:30:24;;;;;;;2.08;1.30;;;;;;;7.25;100.00;100030.25;5172722;27;20081;-46
2022/09/02 02:32:50;;;;;;;1.70;1.60;;;;;;;6.99;100.00;100027.50;5172638;27;20046;-46
2022/09/02 02:35:18;;;;;;;2.17;1.50;;;;;;;7.08;100.00;100025.59;5172844;27;20084;-45
2022/09/02 02:37:47;;;;;;;1.80;1.70;;;;;;;7.08;100.00;100020.13;5172395;27;20051;-46
2022/09/02 02:40:15;;;;;;;2.05;1.50;;;;;;;6.96;100.00;100011.78;5172719;27;20052;-46
2022/09/02 02:42:42;;;;;;;3.42;1.48;;;;;;;7.03;100.00;99998.47;5172427;27;20056;-46
2022/09/02 02:45:11;;;;;;;2.60;1.42;;;;;;;7.07;100.00;100010.38;5172577;27;20133;-47
2022/09/02 02:47:39;;;;;;;3.13;1.45;;;;;;;6.97;100.00;100014.22;5172440;27;20555;-45
2022/09/02 02:50:07;;;;;;;3.08;1.60;;;;;;;6.87;100.00;100009.06;5172143;27;20054;-46
2022/09/02 02:52:33;;;;;;;1.80;1.60;;;;;;;6.76;100.00;100010.47;5172301;27;20048;-47
2022/09/02 02:55:00;;;;;;;2.47;1.63;;;;;;;6.76;100.00;100003.09;5172153;27;20042;-46
2022/09/02 02:57:26;;;;;;;1.58;1.48;;;;;;;6.75;100.00;99993.34;5172235;27;20137;-49
2022/09/02 02:59:53;;;;;;;1.75;1.58;;;;;;;6.80;100.00;99978.75;5172116;27;20073;-47
2022/09/02 03:02:19;;;;;;;1.58;1.48;;;;;;;6.77;100.00;99982.13;5172486;27;20082;-46
2022/09/02 03:04:47;;;;;;;1.80;1.50;;;;;;;6.79;100.00;99983.38;5172035;27;20137;-46
2022/09/02 03:07:13;;;;;;;3.88;1.80;;;;;;;6.70;100.00;99973.63;5172299;27;20042;-46
2022/09/02 03:09:39;;;;;;;2.38;2.00;;;;;;;6.66;100.00;99969.91;5171896;27;20145;-47
2022/09/02 03:12:06;;;;;;;2.53;1.75;;;;;;;6.74;100.00;99969.94;5172210;27;20074;-46
2022/09/02 03:14:32;;;;;;;2.92;1.60;;;;;;;6.79;100.00;99980.66;5171896;27;20081;-47
2022/09/02 03:16:58;;;;;;;1.77;1.52;;;;;;;6.76;100.00;99994.94;5171961;27;20585;-47
2022/09/02 03:19:26;;;;;;;3.03;1.80;;;;;;;6.77;100.00;99996.56;5173569;27;20046;-45
2022/09/02 03:21:53;;;;;;;5.00;2.00;;;;;;;6.68;100.00;100008.56;5175448;27;20046;-46
2022/09/02 03:24:20;;;;;;;9.40;1.90;;;;;;;6.71;100.00;99989.66;5175492;27;20046;-47
2022/09/02 03:26:46;;;;;;;3.00;1.80;;;;;;;6.60;100.00;99993.81;5175469;27;20140;-46
2022/09/02 03:29:12;;;;;;;2.00;1.80;;;;;;;6.82;100.00;99981.94;5175664;27;20585;-47
2022/09/02 03:31:39;;;;;;;4.38;2.33;;;;;;;6.86;100.00;100002.00;5175226;27;20046;-47
2022/09/02 03:34:05;;;;;;;2.20;1.95;;;;;;;6.91;100.00;100001.06;5175581;27;20050;-46
2022/09/02 03:36:33;;;;;;;2.17;1.98;;;;;;;6.79;100.00;100002.47;5175180;27;20043;-48
2022/09/02 03:39:00;;;;;;;2.05;1.73;;;;;;;6.83;100.00;100006.19;5175417;27;20081;-48
2022/09/02 03:41:27;;;;;;;5.60;2.03;;;;;;;6.91;100.00;100003.78;5175166;27;20560;-49
2022/09/02 03:43:53;;;;;;;1.73;1.58;;;;;;;6.83;100.00;100010.81;5175155;27;20526;-47
2022/09/02 03:46:19;;;;;;;4.50;1.90;;;;;;;6.90;100.00;100005.72;5175236;27;20447;-47
2022/09/02 03:48:46;;;;;;;1.63;1.52;;;;;;;6.89;100.00;100006.81;5175022;27;20050;-46
2022/09/02 03:51:12;;;;;;;2.35;1.90;;;;;;;6.91;100.00;100001.06;5175017;27;20046;-48
2022/09/02 03:53:39;;;;;;;2.25;1.85;;;;;;;7.07;100.00;100010.38;5174938;27;20054;-46
2022/09/02 03:56:10;;;;;;;3.10;1.80;;;;;;;7.21;100.00;100019.19;5175116;27;20074;-49
2022/09/02 03:58:37;;;;;;;5.57;1.77;;;;;;;7.30;100.00;100035.56;5174866;27;20054;-46
2022/09/02 04:01:05;;;;;;;2.13;1.80;;;;;;;7.77;100.00;100047.38;5175195;27;20053;-46
2022/09/02 04:03:31;;;;;;;1.80;1.40;;;;;;;8.46;100.00;100075.59;5174628;27;20054;-49
2022/09/02 04:05:57;;;;;;;1.90;1.55;;;;;;;9.37;100.00;100108.84;5175164;27;20050;-49
2022/09/02 04:08:24;;;;;;;2.85;1.45;;;;;;;10.17;100.00;100042.84;5174780;27;20531;-46
2022/09/02 04:10:51;;;;;;;2.03;1.35;;;;;;;10.76;100.00;99784.63;5174709;27;20529;-47
2022/09/02 04:13:18;;;;;;;1.42;1.17;;;;;;;11.15;100.00;99432.81;5174927;27;20050;-46
2022/09/02 04:15:46;;;;;;;6.38;1.40;;;;;;;11.65;100.00;99117.94;5174715;27;20056;-46
2022/09/02 04:18:13;;;;;;;2.33;1.40;;;;;;;12.15;100.00;98910.47;5174564;27;20398;-46
2022/09/02 04:20:42;;;;;;;5.32;1.27;;;;;;;12.43;100.00;98772.44;5174645;27;20062;-46
2022/09/02 04:23:08;;;;;;;1.65;1.40;;;;;;;12.57;100.00;98713.97;5174534;27;20053;-46
2022/09/02 04:25:38;;;;;;;2.50;1.30;;;;;;;13.11;100.00;98673.53;5174435;27;20058;-45
2022/09/02 04:28:05;;;;;;;8.05;1.40;;;;;;;13.32;100.00;98670.00;5174699;27;20137;-45
2022/09/02 04:30:32;;;;;;;2.40;1.30;;;;;;;13.57;100.00;98680.22;5173149;27;20061;-45
2022/09/02 04:32:58;;;;;;;2.35;1.27;;;;;;;13.76;100.00;98701.81;5174838;27;20077;-46
2022/09/02 04:35:24;;;;;;;2.35;1.30;;;;;;;13.77;100.00;98702.59;5174341;27;20134;-47
2022/09/02 04:37:50;;;;;;;1.60;1.10;;;;;;;13.71;100.00;98713.22;5174445;27;20085;-47
2022/09/02 04:40:17;;;;;;;1.73;1.50;;;;;;;14.46;100.00;98746.06;5174167;27;20525;-49
2022/09/02 04:42:43;;;;;;;4.30;1.65;;;;;;;14.48;100.00;98762.22;5174174;27;20050;-48
2022/09/02 04:45:10;;;;;;;1.98;1.20;;;;;;;15.03;100.00;98786.41;5174109;27;20101;-47
2022/09/02 04:47:37;;;;;;;1.77;1.30;;;;;;;14.84;100.00;98826.31;5174176;27;20129;-47
2022/09/02 04:50:05;;;;;;;6.30;1.75;;;;;;;15.36;100.00;98840.22;5174271;27;20082;-47
2022/09/02 04:52:31;;;;;;;4.07;1.40;;;;;;;15.34;100.00;98856.41;5174343;27;20054;-51
2022/09/02 04:54:57;;;;;;;3.50;1.52;;;;;;;15.62;100.00;98863.72;5174282;27;20042;-50
2022/09/02 04:57:24;;;;;;;1.52;1.42;;;;;;;15.52;100.00;98917.06;5173761;27;20138;-49
2022/09/02 04:59:50;;;;;;;6.78;1.48;;;;;;;15.61;100.00;98913.88;5173855;27;20054;-49
2022/09/02 05:02:18;;;;;;;4.88;1.60;;;;;;;15.93;100.00;98928.28;5173912;27;20046;-48
2022/09/02 05:04:46;;;;;;;6.40;1.25;;;;;;;16.26;100.00;98950.94;5174033;27;20539;-48
2022/09/02 05:07:12;;;;;;;4.45;1.20;;;;;;;16.24;100.00;98962.38;5173728;27;20158;-47
2022/09/02 05:09:38;;;;;;;3.22;1.65;;;;;;;16.81;100.00;99010.16;5173647;27;20054;-48
2022/09/02 05:12:05;;;;;;;3.42;1.67;;;;;;;16.83;100.00;99022.38;5173823;27;20050;-51
2022/09/02 05:14:31;;;;;;;1.65;1.30;;;;;;;17.14;100.00;99052.94;5173589;27;20057;-50
2022/09/02 05:16:59;;;;;;;4.65;1.35;;;;;;;17.00;100.00;99044.78;5173777;27;20046;-48
2022/09/02 05:19:25;;;;;;;1.50;1.40;;;;;;;17.12;100.00;99083.78;5173517;27;20102;-50
2022/09/02 05:21:54;;;;;;;3.33;1.60;;;;;;;17.42;100.00;99096.16;5173656;27;20090;-51
2022/09/02 05:24:21;;;;;;;1.35;1.25;;;;;;;17.23;100.00;99102.28;5173291;27;20140;-49
2022/09/02 05:26:48;;;;;;;1.30;1.20;;;;;;;17.68;100.00;99113.31;5173442;27;20476;-48
2022/09/02 05:29:16;;;;;;;2.28;1.65;;;;;;;17.64;100.00;99107.78;5173346;27;20050;-52
2022/09/02 05:31:42;;;;;;;6.30;1.38;;;;;;;17.97;100.00;99122.09;5173373;27;20065;-48
2022/09/02 05:34:09;;;;;;;7.82;1.58;;;;;;;17.25;100.00;99124.84;5173232;27;20133;-47
2022/09/02 05:36:35;;;;;;;1.55;1.40;;;;;;;17.36;100.00;99097.81;5173269;27;20375;-50
2022/09/02 05:39:04;;;;;;;5.90;3.80;;;;;;;17.42;100.00;99083.06;5173110;27;20077;-50
2022/09/02 05:41:31;;;;;;;19.77;6.95;;;;;;;17.09;100.00;99078.28;5172714;27;20141;-52
2022/09/02 05:44:00;;;;;;;4.88;1.48;;;;;;;17.43;100.00;99086.66;5173276;27;20050;-48
2022/09/02 05:46:26;;;;;;;4.45;1.23;;;;;;;17.81;100.00;99120.69;5173124;27;20050;-52
2022/09/02 05:49:07;;;;;;;2.28;1.30;;;;;;;17.85;100.00;99131.72;5173387;27;20133;-48
2022/09/02 05:51:39;;;;;;;6.78;1.60;;;;;;;18.36;100.00;99160.41;5172942;27;20500;-49
2022/09/02 05:54:09;;;;;;;5.78;1.90;;;;;;;18.58;100.00;99192.22;5173158;27;20073;-52
2022/09/02 05:56:37;;;;;;;1.58;1.33;;;;;;;19.19;100.00;99207.19;5172948;27;20057;-51
2022/09/02 05:59:06;;;;;;;2.53;1.50;;;;;;;19.36;100.00;99227.56;5172918;27;20073;-50
2022/09/02 06:01:33;;;;;;;3.50;1.17;;;;;;;19.41;100.00;99222.31;5173189;27;20050;-49
2022/09/02 06:04:01;;;;;;;1.90;1.35;;;;;;;19.64;100.00;99249.34;5172586;27;20140;-52
2022/09/02 06:06:27;;;;;;;1.80;1.10;;;;;;;19.70;100.00;99258.78;5172817;27;20050;-50
2022/09/02 06:08:53;;;;;;;2.70;1.20;;;;;;;19.82;100.00;99251.81;5172704;27;20505;-49
2022/09/02 06:11:21;;;;;;;3.70;1.30;;;;;;;19.78;100.00;99264.22;5172784;27;20085;-50
2022/09/02 06:13:47;;;;;;;2.17;1.25;;;;;;;19.62;100.00;99270.41;5172763;27;20183;-50
2022/09/02 06:16:15;;;;;;;4.32;1.15;;;;;;;20.01;100.00;99255.06;5172600;27;20050;-51
2022/09/02 06:18:41;;;;;;;2.80;1.40;;;;;;;20.49;100.00;99285.09;5172526;27;20191;-49
2022/09/02 06:21:07;;;;;;;6.18;1.60;;;;;;;19.79;100.00;99291.59;5172781;27;20477;-50
2022/09/02 06:23:35;;;;;;;2.88;1.00;;;;;;;19.58;100.00;99286.38;5172481;27;20144;-50
2022/09/02 06:26:01;;;;;;;1.10;1.10;;;;;;;19.55;100.00;99274.09;5172092;27;20056;-50
2022/09/02 06:28:28;;;;;;;1.58;1.10;;;;;;;20.16;100.00;99286.97;5172573;27;20145;-50
2022/09/02 06:30:54;;;;;;;3.35;1.20;;;;;;;20.00;100.00;99284.09;5172250;27;20137;-56
2022/09/02 06:33:21;;;;;;;5.53;1.25;;;;;;;21.01;100.00;99305.94;5172388;27;20144;-53
2022/09/02 06:35:48;;;;;;;4.50;1.98;;;;;;;21.07;100.00;99324.50;5172204;27;20137;-51
2022/09/02 06:38:15;;;;;;;7.80;1.95;;;;;;;21.29;100.00;99333.19;5172221;27;20046;-52
2022/09/02 06:40:47;;;;;;;14.38;2.08;;;;;;;21.46;100.00;99322.03;5172001;27;20098;-53
2022/09/02 06:43:13;;;;;;;11.27;1.70;;;;;;;22.40;100.00;99349.19;5172086;27;20129;-53
2022/09/02 06:45:40;;;;;;;7.55;2.22;;;;;;;22.03;100.00;99338.16;5172021;27;20050;-54
2022/09/02 06:48:07;;;;;;;11.93;1.30;;;;;;;22.36;97.06;99368.03;5172004;27;20137;-55
2022/09/02 06:50:38;;;;;;;5.43;1.20;;;;;;;22.54;93.23;99377.50;5172004;27;20046;-52
2022/09/02 06:53:07;;;;;;;8.82;1.58;;;;;;;22.42;96.80;99372.66;5171286;27;20141;-53
2022/09/02 06:55:35;;;;;;;3.10;1.20;;;;;;;22.97;91.65;99384.72;5172174;27;20556;-52
2022/09/02 06:58:03;;;;;;;5.85;1.20;;;;;;;21.68;91.12;99389.28;5172079;27;20103;-50
2022/09/02 07:00:30;;;;;;;3.85;1.30;;;;;;;21.58;93.22;99391.09;5171953;27;20141;-51
2022/09/02 07:05:41;;;;;;;3.45;1.30;;;;;;;21.01;96.96;99381.97;5172116;27;20610;-53
2022/09/02 07:08:08;;;;;;;2.72;1.08;;;;;;;21.01;93.47;99393.13;5172039;27;20069;-52
2022/09/02 07:10:37;;;;;;;4.20;0.90;;;;;;;21.23;97.06;99392.66;5171792;27;20050;-54
2022/09/02 07:13:04;;;;;;;2.15;0.90;;;;;;;20.97;95.30;99392.41;5171906;27;20047;-55
2022/09/02 07:15:30;;;;;;;3.95;0.98;;;;;;;20.29;99.78;99392.91;5172211;27;20149;-58
2022/09/02 07:17:57;;;;;;;0.85;0.75;;;;;;;21.06;96.90;99400.19;5172311;27;20050;-56
2022/09/02 07:20:23;;;;;;;3.28;1.10;;;;;;;21.43;94.91;99398.25;5171745;27;20122;-52
2022/09/02 07:22:49;;;;;;;2.15;1.10;;;;;;;21.59;93.02;99407.41;5171960;27;20465;-55
2022/09/02 07:25:17;;;;;;;3.88;1.30;;;;;;;22.21;89.08;99413.09;5171721;27;20089;-53
2022/09/02 07:27:44;;;;;;;1.60;1.05;;;;;;;22.31;84.42;99422.44;5171675;27;20043;-56
2022/09/02 07:30:12;;;;;;;2.40;1.00;;;;;;;22.44;80.38;99428.09;5171655;27;20422;-54
2022/09/02 07:32:38;;;;;;;3.65;1.00;;;;;;;22.57;81.51;99428.16;5171687;27;20046;-53
2022/09/02 07:35:07;;;;;;;3.33;1.00;;;;;;;22.57;78.62;99425.38;5171682;27;20148;-53
2022/09/02 07:37:33;;;;;;;5.40;0.98;;;;;;;22.88;79.67;99425.69;5172077;27;20472;-53
2022/09/02 07:40:00;;;;;;;6.10;1.27;;;;;;;22.84;81.02;99431.38;5171514;27;20043;-54
2022/09/02 07:42:26;;;;;;;3.03;1.15;;;;;;;22.40;76.12;99433.00;5171604;27;20133;-52
2022/09/02 07:44:52;;;;;;;4.82;1.10;;;;;;;23.11;76.93;99425.47;5171688;27;20054;-54
2022/09/02 07:47:18;;;;;;;2.47;1.20;;;;;;;23.73;76.32;99427.25;5171261;27;20085;-51
2022/09/02 07:49:45;;;;;;;2.47;1.40;;;;;;;23.90;75.44;99434.28;5171563;27;20054;-50
2022/09/02 07:52:11;;;;;;;1.42;1.10;;;;;;;24.04;72.61;99436.63;5171291;27;20099;-52
2022/09/02 07:54:38;;;;;;;2.00;1.05;;;;;;;24.37;68.17;99453.13;5171354;27;20085;-53
2022/09/02 07:57:04;;;;;;;3.47;2.20;;;;;;;23.77;69.72;99439.09;5171603;27;20069;-52
2022/09/02 07:59:31;;;;;;;1.13;0.80;;;;;;;22.59;75.07;99436.88;5171317;27;20057;-56
2022/09/02 08:01:57;;;;;;;8.32;1.33;;;;;;;22.56;77.69;99432.97;5170987;27;20094;-52
2022/09/02 08:04:24;;;;;;;2.00;0.90;;;;;;;22.67;71.73;99446.66;5171240;27;20081;-50
2022/09/02 08:06:51;;;;;;;5.03;1.05;;;;;;;23.37;68.37;99445.88;5174920;27;20046;-51
2022/09/02 08:09:18;;;;;;;3.17;0.70;;;;;;;23.87;66.11;99457.56;5174459;27;20487;-55
2022/09/02 08:11:48;;;;;;;3.15;0.63;;;;;;;24.22;64.84;99455.63;5174595;27;20050;-55
2022/09/02 08:14:18;;;;;;;1.88;0.80;;;;;;;24.67;63.74;99457.34;5174513;27;20050;-55
2022/09/02 08:16:44;;;;;;;2.72;1.67;;;;;;;24.77;61.17;99458.97;5174941;27;20078;-52
2022/09/02 08:19:12;;;;;;;1.95;0.75;;;;;;;25.14;63.28;99450.84;5174633;27;20050;-53
2022/09/02 08:21:38;;;;;;;1.27;0.70;;;;;;;24.84;63.51;99450.31;5174939;27;20610;-52
2022/09/02 08:24:05;;;;;;;4.10;0.65;;;;;;;23.66;63.79;99453.41;5174463;27;20129;-55
2022/09/02 08:26:35;;;;;;;2.47;0.90;;;;;;;22.51;67.69;99447.47;5174345;27;20089;-51
2022/09/02 08:29:02;;;;;;;1.35;0.90;;;;;;;22.77;69.35;99443.56;5174384;27;20082;-51
2022/09/02 08:31:28;;;;;;;5.15;1.27;;;;;;;23.50;69.57;99443.09;5174507;27;20054;-52
2022/09/02 08:33:55;;;;;;;3.65;0.82;;;;;;;22.90;70.26;99440.81;5174357;27;20549;-52
2022/09/02 08:36:22;;;;;;;4.25;0.70;;;;;;;21.76;69.47;99452.88;5174171;27;20498;-51
2022/09/02 08:38:48;;;;;;;1.23;0.70;;;;;;;20.60;75.18;99449.25;5174383;27;20042;-50
2022/09/02 08:41:20;;;;;;;4.97;0.80;;;;;;;20.76;76.91;99443.78;5174424;27;20481;-51
2022/09/02 08:43:50;;;;;;;3.70;1.08;;;;;;;21.71;71.72;99444.22;5174367;27;20466;-49
2022/09/02 08:46:17;;;;;;;5.00;1.20;;;;;;;22.42;71.24;99444.50;5174065;27;20133;-49
2022/09/02 08:48:48;;;;;;;1.33;0.82;;;;;;;22.22;70.49;99439.81;5174428;27;20077;-48
2022/09/02 08:51:21;;;;;;;2.40;0.75;;;;;;;21.66;72.25;99442.75;5174481;27;20424;-52
2022/09/02 08:53:51;;;;;;;0.95;0.88;;;;;;;21.47;74.42;99441.56;5174208;27;20569;-48
2022/09/02 08:56:18;;;;;;;3.15;0.90;;;;;;;20.76;79.06;99438.22;5174199;27;20107;-48
2022/09/02 08:58:52;;;;;;;3.45;0.90;;;;;;;19.93;83.61;99424.13;5174184;27;20545;-47
2022/09/02 09:01:24;;;;;;;;;;;;;;;19.31;88.58;99415.06;5174825;27;20489;-48
2022/09/02 09:04:26;;;;;;;1.13;0.80;;;;;;;19.19;91.46;99405.31;5174153;27;19983;-48
2022/09/02 09:07:19;;;;;;;1.77;0.80;;;;;;;20.53;89.13;99413.97;5158244;27;20042;-51
2022/09/02 09:10:02;;;;;;;2.17;1.10;;;;;;;21.71;79.06;99424.69;5173823;27;20084;-52
2022/09/02 09:12:49;;;;;;;5.47;1.20;;;;;;;22.47;71.66;99435.59;5173596;27;20050;-52
2022/09/02 09:15:22;;;;;;;4.40;1.13;;;;;;;22.45;68.22;99447.19;5173695;27;20424;-52
2022/09/02 09:17:56;;;;;;;11.15;1.50;;;;;;;22.19;66.99;99449.06;5173120;27;20114;-50
2022/09/02 09:20:25;;;;;;;0.70;0.63;;;;;;;22.51;65.89;99455.84;5173622;27;20115;-49
2022/09/02 09:22:55;;;;;;;3.72;1.10;;;;;;;23.16;66.22;99454.91;5173571;27;20042;-51
2022/09/02 09:25:28;;;;;;;4.32;1.10;;;;;;;23.48;66.42;99451.91;5173645;27;20137;-50
2022/09/02 09:27:55;;;;;;;1.27;0.83;;;;;;;22.54;70.02;99450.16;5173417;27;20106;-52
2022/09/02 09:30:21;;;;;;;10.63;1.50;;;;;;;22.79;71.04;99446.69;5173281;27;20050;-49
2022/09/02 09:32:53;;;;;;;5.30;1.20;;;;;;;22.55;70.74;99440.53;5173487;27;20565;-50
2022/09/02 09:35:21;;;;;;;8.15;1.40;;;;;;;22.96;70.97;99446.69;5173712;27;20123;-51
2022/09/02 09:37:49;;;;;;;2.25;0.90;;;;;;;22.18;69.61;99444.69;5173410;27;20083;-51
2022/09/02 09:40:27;;;;;;;3.00;1.00;;;;;;;22.44;69.02;99440.03;5173382;27;20050;-50
2022/09/02 09:42:56;;;;;;;3.30;1.10;;;;;;;22.75;69.45;99443.19;5173611;27;20174;-48
2022/09/02 09:45:31;;;;;;;1.10;0.90;;;;;;;23.67;69.56;99432.59;5173197;27;20054;-50
2022/09/02 09:48:19;;;;;;;1.20;1.00;;;;;;;23.28;67.58;99433.78;5173170;27;20488;-49
2022/09/02 09:50:46;;;;;;;2.53;0.80;;;;;;;23.56;68.68;99432.09;5173258;27;20050;-50
2022/09/02 09:53:19;;;;;;;1.65;1.02;;;;;;;23.41;67.72;99434.56;5172983;27;20137;-50
2022/09/02 09:55:54;;;;;;;3.30;1.15;;;;;;;22.75;66.59;99440.41;5173273;27;20046;-49
2022/09/02 09:58:22;;;;;;;1.30;0.85;;;;;;;22.18;67.19;99441.91;5172907;27;20141;-50
2022/09/02 10:00:50;;;;;;;11.30;1.33;;;;;;;21.21;72.12;99443.28;5172837;27;20138;-49
2022/09/02 10:03:23;;;;;;;3.60;0.95;;;;;;;20.87;74.43;99438.78;5172786;27;20552;-48
2022/09/02 10:05:54;;;;;;;4.22;0.90;;;;;;;20.30;75.67;99425.09;5173115;27;20132;-49
2022/09/02 10:08:23;;;;;;;1.75;0.70;;;;;;;19.63;78.89;99428.56;5172567;27;20093;-50
2022/09/02 10:10:58;;;;;;;0.98;0.70;;;;;;;19.53;85.68;99418.34;5172915;27;20571;-51
2022/09/02 10:13:28;;;;;;;1.55;0.70;;;;;;;19.18;85.03;99423.19;5172654;27;20050;-49
2022/09/02 10:16:20;;;;;;;4.90;1.00;;;;;;;18.11;91.86;99410.44;5172464;27;20088;-51
2022/09/02 10:18:52;;;;;;;1.77;0.88;;;;;;;18.11;90.67;99408.44;5172503;27;20390;-49
2022/09/02 10:21:43;;;;;;;2.05;0.90;;;;;;;17.96;93.22;99397.88;5172489;27;20050;-50
2022/09/02 10:24:22;;;;;;;3.33;0.95;;;;;;;18.02;92.76;99405.34;5172628;27;20078;-52
2022/09/02 10:26:54;;;;;;;2.38;0.95;;;;;;;18.12;95.44;99400.91;5172356;27;20042;-49
2022/09/02 10:29:52;;;;;;;1.15;0.95;;;;;;;17.39;98.20;99393.50;5171337;27;20050;-49
2022/09/02 10:32:27;;;;;;;2.67;0.90;;;;;;;17.47;97.56;99405.34;5169364;27;20063;-50
2022/09/02 10:35:07;;;;;;;3.03;0.70;;;;;;;17.64;96.75;99405.22;5172211;27;20522;-48
2022/09/02 10:37:43;;;;;;;2.30;1.05;;;;;;;17.44;100.00;99393.06;5172554;27;20058;-49
2022/09/02 10:40:13;;;;;;;4.20;1.05;;;;;;;18.37;95.89;99389.56;5172276;27;20137;-48
2022/09/02 10:42:50;;;;;;;1.90;0.80;;;;;;;18.99;89.35;99410.72;5172169;27;20057;-49
2022/09/02 10:45:23;;;;;;;1.65;0.90;;;;;;;19.70;82.95;99419.31;5172218;27;20046;-50
2022/09/02 10:48:00;;;;;;;2.90;0.90;;;;;;;19.94;82.90;99422.91;5172168;27;20089;-50
2022/09/02 10:50:37;;;;;;;4.95;0.90;;;;;;;20.79;78.96;99431.78;5172170;27;20056;-48
2022/09/02 10:53:30;;;;;;;3.00;0.90;;;;;;;20.94;75.98;99432.28;5171811;27;20053;-52
2022/09/02 10:55:59;;;;;;;3.28;0.98;;;;;;;21.32;76.43;99435.47;5161212;27;20098;-50
2022/09/02 10:58:40;;;;;;;2.83;0.77;;;;;;;20.99;75.66;99433.78;5172283;27;20081;-51
2022/09/02 11:01:09;;;;;;;2.78;1.00;;;;;;;21.29;75.75;99441.91;5172044;27;20054;-49
2022/09/02 11:03:45;;;;;;;1.40;1.00;;;;;;;21.47;73.67;99438.75;5172061;27;20133;-49
2022/09/02 11:06:18;;;;;;;4.28;1.10;;;;;;;21.25;71.10;99441.19;5172038;27;20079;-51
2022/09/02 11:08:49;;;;;;;1.02;0.68;;;;;;;20.42;71.92;99444.75;5172271;27;20046;-49
2022/09/02 11:11:21;;;;;;;1.05;0.60;;;;;;;20.46;72.27;99441.94;5171742;27;20055;-47
2022/09/02 11:14:01;;;;;;;2.70;0.88;;;;;;;20.15;71.04;99446.81;5171748;27;20542;-47
2022/09/02 11:16:32;;;;;;;0.95;0.80;;;;;;;19.97;72.29;99452.69;5171788;27;20133;-48
2022/09/02 11:19:05;;;;;;;1.10;1.10;;;;;;;19.71;71.45;99449.47;5171615;27;20410;-50
2022/09/02 11:21:47;;;;;;;1.83;1.10;;;;;;;19.74;74.09;99445.88;5172036;27;20191;-47
2022/09/02 11:24:19;;;;;;;3.90;0.70;;;;;;;19.53;75.14;99426.69;5171789;27;20509;-49
2022/09/02 11:26:53;;;;;;;1.70;0.77;;;;;;;19.21;77.18;99427.91;5171729;27;20095;-51
2022/09/02 11:29:29;;;;;;;1.25;0.93;;;;;;;18.88;79.57;99428.72;5171679;27;20057;-50
2022/09/02 11:32:05;;;;;;;2.80;0.88;;;;;;;18.92;79.38;99424.69;5171633;27;20081;-49
2022/09/02 11:34:38;;;;;;;2.50;1.20;;;;;;;19.10;78.80;99421.72;5171831;27;20050;-47
2022/09/02 11:37:08;;;;;;;0.70;0.70;;;;;;;18.88;83.93;99410.06;5171734;27;20131;-46
2022/09/02 11:39:39;;;;;;;1.60;1.10;;;;;;;18.58;86.04;99402.44;5172084;27;20050;-47